sensor_id;sensor_type;location;lat;lon;timestamp;P1;durP1;ratioP1;P2;durP2;ratioP2
62509;SDS011;48558;48.242;11.654;2023-05-23T00:02:55;5.85;;;4.63;;
62509;SDS011;48558;48.242;11.654;2023-05-23T00:07:08;7.38;;;4.53;;
62509;SDS011;48558;48.242;11.654;2023-05-23T00:11:21;6.82;;;4.75;;
62509;SDS011;48558;48.242;11.654;2023-05-23T00:15:38;5.45;;;4.90;;
62509;SDS011;48558;48.242;11.654;2023-05-23T00:19:52;6.13;;;4.70;;
62509;SDS011;48558;48.242;11.654;2023-05-23T00:24:07;5.43;;;4.80;;
62509;SDS011;48558;48.242;11.654;2023-05-23T00:28:21;5.05;;;4.43;;
62509;SDS011;48558;48.242;11.654;2023-05-23T00:32:33;7.80;;;4.93;;
62509;SDS011;48558;48.242;11.654;2023-05-23T00:36:56;7.55;;;4.40;;
62509;SDS011;48558;48.242;11.654;2023-05-23T00:41:09;7.07;;;3.90;;
62509;SDS011;48558;48.242;11.654;2023-05-23T00:45:28;4.47;;;4.07;;
62509;SDS011;48558;48.242;11.654;2023-05-23T00:49:41;5.85;;;4.32;;
62509;SDS011;48558;48.242;11.654;2023-05-23T00:53:54;4.85;;;4.20;;
62509;SDS011;48558;48.242;11.654;2023-05-23T00:58:07;5.00;;;4.38;;
62509;SDS011;48558;48.242;11.654;2023-05-23T01:02:21;4.30;;;3.90;;
62509;SDS011;48558;48.242;11.654;2023-05-23T01:06:34;4.82;;;4.20;;
62509;SDS011;48558;48.242;11.654;2023-05-23T01:15:07;5.82;;;3.80;;
62509;SDS011;48558;48.242;11.654;2023-05-23T01:28:49;4.53;;;4.00;;
62509;SDS011;48558;48.242;11.654;2023-05-23T01:33:07;5.55;;;3.85;;
62509;SDS011;48558;48.242;11.654;2023-05-23T01:37:20;4.80;;;4.30;;
62509;SDS011;48558;48.242;11.654;2023-05-23T01:41:33;9.00;;;4.82;;
62509;SDS011;48558;48.242;11.654;2023-05-23T01:45:46;4.40;;;3.97;;
62509;SDS011;48558;48.242;11.654;2023-05-23T01:50:00;4.72;;;4.10;;
62509;SDS011;48558;48.242;11.654;2023-05-23T01:54:24;8.38;;;5.20;;
62509;SDS011;48558;48.242;11.654;2023-05-23T01:58:37;4.63;;;4.00;;
62509;SDS011;48558;48.242;11.654;2023-05-23T02:03:00;5.43;;;4.22;;
62509;SDS011;48558;48.242;11.654;2023-05-23T02:07:14;6.10;;;4.10;;
62509;SDS011;48558;48.242;11.654;2023-05-23T02:11:26;5.13;;;4.40;;
62509;SDS011;48558;48.242;11.654;2023-05-23T02:15:49;5.97;;;4.97;;
62509;SDS011;48558;48.242;11.654;2023-05-23T02:20:01;5.35;;;4.53;;
62509;SDS011;48558;48.242;11.654;2023-05-23T02:24:15;4.53;;;4.05;;
62509;SDS011;48558;48.242;11.654;2023-05-23T02:28:27;6.68;;;4.65;;
62509;SDS011;48558;48.242;11.654;2023-05-23T02:32:40;4.95;;;4.40;;
62509;SDS011;48558;48.242;11.654;2023-05-23T02:37:03;5.25;;;4.38;;
62509;SDS011;48558;48.242;11.654;2023-05-23T02:41:15;5.50;;;4.40;;
62509;SDS011;48558;48.242;11.654;2023-05-23T02:45:28;5.25;;;4.03;;
62509;SDS011;48558;48.242;11.654;2023-05-23T02:49:40;7.03;;;4.60;;
62509;SDS011;48558;48.242;11.654;2023-05-23T02:53:53;5.28;;;4.78;;
62509;SDS011;48558;48.242;11.654;2023-05-23T02:58:06;5.28;;;4.43;;
62509;SDS011;48558;48.242;11.654;2023-05-23T03:02:18;4.90;;;4.38;;
62509;SDS011;48558;48.242;11.654;2023-05-23T03:06:32;6.50;;;5.38;;
62509;SDS011;48558;48.242;11.654;2023-05-23T03:10:45;9.05;;;5.45;;
62509;SDS011;48558;48.242;11.654;2023-05-23T03:15:08;6.95;;;4.85;;
62509;SDS011;48558;48.242;11.654;2023-05-23T03:19:21;6.35;;;4.78;;
62509;SDS011;48558;48.242;11.654;2023-05-23T03:23:34;7.90;;;5.00;;
62509;SDS011;48558;48.242;11.654;2023-05-23T03:27:54;6.50;;;4.82;;
62509;SDS011;48558;48.242;11.654;2023-05-23T03:32:06;6.38;;;5.15;;
62509;SDS011;48558;48.242;11.654;2023-05-23T03:36:19;6.05;;;4.78;;
62509;SDS011;48558;48.242;11.654;2023-05-23T03:40:32;7.38;;;4.82;;
62509;SDS011;48558;48.242;11.654;2023-05-23T03:44:47;6.13;;;5.05;;
62509;SDS011;48558;48.242;11.654;2023-05-23T03:48:59;7.63;;;5.25;;
62509;SDS011;48558;48.242;11.654;2023-05-23T03:53:12;6.75;;;5.22;;
62509;SDS011;48558;48.242;11.654;2023-05-23T03:57:24;7.30;;;5.57;;
62509;SDS011;48558;48.242;11.654;2023-05-23T04:01:37;7.10;;;5.07;;
62509;SDS011;48558;48.242;11.654;2023-05-23T04:05:50;7.07;;;5.45;;
62509;SDS011;48558;48.242;11.654;2023-05-23T04:10:03;7.00;;;5.65;;
62509;SDS011;48558;48.242;11.654;2023-05-23T04:14:16;9.80;;;5.95;;
62509;SDS011;48558;48.242;11.654;2023-05-23T04:18:41;6.95;;;5.72;;
62509;SDS011;48558;48.242;11.654;2023-05-23T04:22:54;9.52;;;6.00;;
62509;SDS011;48558;48.242;11.654;2023-05-23T04:27:07;8.18;;;6.43;;
62509;SDS011;48558;48.242;11.654;2023-05-23T04:31:29;10.60;;;6.13;;
62509;SDS011;48558;48.242;11.654;2023-05-23T04:35:52;7.10;;;5.78;;
62509;SDS011;48558;48.242;11.654;2023-05-23T04:40:07;5.82;;;5.18;;
62509;SDS011;48558;48.242;11.654;2023-05-23T04:44:21;8.27;;;6.05;;
62509;SDS011;48558;48.242;11.654;2023-05-23T04:48:34;7.05;;;5.03;;
62509;SDS011;48558;48.242;11.654;2023-05-23T04:52:48;7.28;;;5.32;;
62509;SDS011;48558;48.242;11.654;2023-05-23T04:57:00;7.78;;;6.13;;
62509;SDS011;48558;48.242;11.654;2023-05-23T05:01:13;5.78;;;5.18;;
62509;SDS011;48558;48.242;11.654;2023-05-23T05:05:26;7.68;;;6.07;;
62509;SDS011;48558;48.242;11.654;2023-05-23T05:09:39;7.45;;;5.97;;
62509;SDS011;48558;48.242;11.654;2023-05-23T05:13:51;8.15;;;5.70;;
62509;SDS011;48558;48.242;11.654;2023-05-23T05:18:04;10.57;;;6.05;;
62509;SDS011;48558;48.242;11.654;2023-05-23T05:22:17;8.20;;;6.47;;
62509;SDS011;48558;48.242;11.654;2023-05-23T05:26:29;8.35;;;5.75;;
62509;SDS011;48558;48.242;11.654;2023-05-23T05:30:50;9.73;;;6.38;;
62509;SDS011;48558;48.242;11.654;2023-05-23T05:35:05;8.70;;;6.72;;
62509;SDS011;48558;48.242;11.654;2023-05-23T05:39:19;10.25;;;6.20;;
62509;SDS011;48558;48.242;11.654;2023-05-23T05:43:32;4.82;;;4.40;;
62509;SDS011;48558;48.242;11.654;2023-05-23T05:47:53;9.68;;;7.72;;
62509;SDS011;48558;48.242;11.654;2023-05-23T05:52:06;6.40;;;5.63;;
62509;SDS011;48558;48.242;11.654;2023-05-23T05:56:20;8.02;;;5.93;;
62509;SDS011;48558;48.242;11.654;2023-05-23T06:00:43;11.95;;;7.45;;
62509;SDS011;48558;48.242;11.654;2023-05-23T06:04:56;6.68;;;5.53;;
62509;SDS011;48558;48.242;11.654;2023-05-23T06:09:08;11.98;;;6.82;;
62509;SDS011;48558;48.242;11.654;2023-05-23T06:13:24;6.72;;;5.88;;
62509;SDS011;48558;48.242;11.654;2023-05-23T06:17:37;10.25;;;8.77;;
62509;SDS011;48558;48.242;11.654;2023-05-23T06:21:49;9.77;;;7.50;;
62509;SDS011;48558;48.242;11.654;2023-05-23T06:26:02;10.05;;;7.43;;
62509;SDS011;48558;48.242;11.654;2023-05-23T06:30:15;9.07;;;7.05;;
62509;SDS011;48558;48.242;11.654;2023-05-23T06:34:27;11.93;;;7.30;;
62509;SDS011;48558;48.242;11.654;2023-05-23T06:38:40;6.93;;;5.75;;
62509;SDS011;48558;48.242;11.654;2023-05-23T06:42:53;10.73;;;7.28;;
62509;SDS011;48558;48.242;11.654;2023-05-23T06:47:06;10.85;;;7.50;;
62509;SDS011;48558;48.242;11.654;2023-05-23T06:51:19;12.57;;;9.32;;
62509;SDS011;48558;48.242;11.654;2023-05-23T06:55:31;11.52;;;9.27;;
62509;SDS011;48558;48.242;11.654;2023-05-23T06:59:50;11.65;;;7.05;;
62509;SDS011;48558;48.242;11.654;2023-05-23T07:04:03;13.68;;;7.20;;
62509;SDS011;48558;48.242;11.654;2023-05-23T07:08:16;11.00;;;7.13;;
62509;SDS011;48558;48.242;11.654;2023-05-23T07:12:38;9.93;;;7.50;;
62509;SDS011;48558;48.242;11.654;2023-05-23T07:16:51;11.60;;;7.32;;
62509;SDS011;48558;48.242;11.654;2023-05-23T07:21:03;8.88;;;7.90;;
62509;SDS011;48558;48.242;11.654;2023-05-23T07:25:16;10.48;;;7.25;;
62509;SDS011;48558;48.242;11.654;2023-05-23T07:29:29;13.10;;;9.70;;
62509;SDS011;48558;48.242;11.654;2023-05-23T07:33:42;13.23;;;9.77;;
62509;SDS011;48558;48.242;11.654;2023-05-23T07:37:54;13.52;;;8.55;;
62509;SDS011;48558;48.242;11.654;2023-05-23T07:42:08;12.63;;;9.05;;
62509;SDS011;48558;48.242;11.654;2023-05-23T07:46:21;11.27;;;8.07;;
62509;SDS011;48558;48.242;11.654;2023-05-23T07:50:34;10.95;;;7.60;;
62509;SDS011;48558;48.242;11.654;2023-05-23T07:54:46;10.02;;;7.72;;
62509;SDS011;48558;48.242;11.654;2023-05-23T07:58:59;11.13;;;7.07;;
62509;SDS011;48558;48.242;11.654;2023-05-23T08:03:12;7.70;;;5.35;;
62509;SDS011;48558;48.242;11.654;2023-05-23T08:07:34;13.15;;;7.68;;
62509;SDS011;48558;48.242;11.654;2023-05-23T08:11:47;10.40;;;7.07;;
62509;SDS011;48558;48.242;11.654;2023-05-23T08:16:09;9.02;;;7.68;;
62509;SDS011;48558;48.242;11.654;2023-05-23T08:20:22;9.27;;;7.20;;
62509;SDS011;48558;48.242;11.654;2023-05-23T08:24:41;9.95;;;7.53;;
62509;SDS011;48558;48.242;11.654;2023-05-23T08:28:54;12.02;;;8.15;;
62509;SDS011;48558;48.242;11.654;2023-05-23T08:33:07;13.50;;;9.30;;
62509;SDS011;48558;48.242;11.654;2023-05-23T08:37:19;11.30;;;7.97;;
62509;SDS011;48558;48.242;11.654;2023-05-23T08:41:32;11.82;;;8.45;;
62509;SDS011;48558;48.242;11.654;2023-05-23T08:45:56;11.50;;;8.23;;
62509;SDS011;48558;48.242;11.654;2023-05-23T08:50:12;10.98;;;7.68;;
62509;SDS011;48558;48.242;11.654;2023-05-23T08:54:37;11.55;;;8.45;;
62509;SDS011;48558;48.242;11.654;2023-05-23T08:58:49;10.85;;;8.95;;
62509;SDS011;48558;48.242;11.654;2023-05-23T09:03:04;13.80;;;7.45;;
62509;SDS011;48558;48.242;11.654;2023-05-23T09:07:16;10.90;;;7.18;;
62509;SDS011;48558;48.242;11.654;2023-05-23T09:11:30;10.07;;;7.95;;
62509;SDS011;48558;48.242;11.654;2023-05-23T09:20:29;11.65;;;7.65;;
62509;SDS011;48558;48.242;11.654;2023-05-23T09:24:41;10.43;;;8.00;;
62509;SDS011;48558;48.242;11.654;2023-05-23T09:28:56;12.80;;;9.77;;
62509;SDS011;48558;48.242;11.654;2023-05-23T09:33:20;8.70;;;7.28;;
62509;SDS011;48558;48.242;11.654;2023-05-23T09:37:37;9.52;;;7.22;;
62509;SDS011;48558;48.242;11.654;2023-05-23T09:41:57;10.15;;;6.78;;
62509;SDS011;48558;48.242;11.654;2023-05-23T09:46:12;9.80;;;7.03;;
62509;SDS011;48558;48.242;11.654;2023-05-23T09:50:25;8.10;;;6.63;;
62509;SDS011;48558;48.242;11.654;2023-05-23T09:54:54;8.30;;;7.25;;
62509;SDS011;48558;48.242;11.654;2023-05-23T09:59:07;10.13;;;7.47;;
62509;SDS011;48558;48.242;11.654;2023-05-23T10:04:11;9.18;;;7.10;;
62509;SDS011;48558;48.242;11.654;2023-05-23T10:08:04;11.40;;;7.22;;
62509;SDS011;48558;48.242;11.654;2023-05-23T10:17:06;10.40;;;7.38;;
62509;SDS011;48558;48.242;11.654;2023-05-23T10:21:34;8.77;;;7.32;;
62509;SDS011;48558;48.242;11.654;2023-05-23T10:25:57;11.70;;;8.02;;
62509;SDS011;48558;48.242;11.654;2023-05-23T10:30:10;11.35;;;8.10;;
62509;SDS011;48558;48.242;11.654;2023-05-23T10:34:35;8.30;;;7.30;;
62509;SDS011;48558;48.242;11.654;2023-05-23T10:39:13;9.95;;;8.60;;
62509;SDS011;48558;48.242;11.654;2023-05-23T10:43:47;10.48;;;8.05;;
62509;SDS011;48558;48.242;11.654;2023-05-23T10:52:39;9.35;;;6.07;;
62509;SDS011;48558;48.242;11.654;2023-05-23T10:57:03;8.73;;;6.82;;
62509;SDS011;48558;48.242;11.654;2023-05-23T11:01:17;7.25;;;5.85;;
62509;SDS011;48558;48.242;11.654;2023-05-23T11:05:41;6.65;;;5.30;;
62509;SDS011;48558;48.242;11.654;2023-05-23T11:10:11;4.93;;;4.43;;
62509;SDS011;48558;48.242;11.654;2023-05-23T11:14:50;7.00;;;5.78;;
62509;SDS011;48558;48.242;11.654;2023-05-23T11:23:39;9.85;;;6.47;;
62509;SDS011;48558;48.242;11.654;2023-05-23T11:27:53;6.82;;;5.93;;
62509;SDS011;48558;48.242;11.654;2023-05-23T11:32:09;8.00;;;6.80;;
62509;SDS011;48558;48.242;11.654;2023-05-23T11:36:38;6.68;;;5.55;;
62509;SDS011;48558;48.242;11.654;2023-05-23T11:40:51;6.43;;;5.78;;
62509;SDS011;48558;48.242;11.654;2023-05-23T11:45:07;9.73;;;6.68;;
62509;SDS011;48558;48.242;11.654;2023-05-23T11:49:20;8.93;;;7.35;;
62509;SDS011;48558;48.242;11.654;2023-05-23T11:53:33;6.35;;;5.70;;
62509;SDS011;48558;48.242;11.654;2023-05-23T11:57:45;6.40;;;5.72;;
62509;SDS011;48558;48.242;11.654;2023-05-23T12:01:58;6.20;;;5.60;;
62509;SDS011;48558;48.242;11.654;2023-05-23T12:06:13;8.15;;;5.53;;
62509;SDS011;48558;48.242;11.654;2023-05-23T12:10:34;7.45;;;6.65;;
62509;SDS011;48558;48.242;11.654;2023-05-23T12:14:54;6.22;;;5.53;;
62509;SDS011;48558;48.242;11.654;2023-05-23T12:19:18;6.45;;;5.05;;
62509;SDS011;48558;48.242;11.654;2023-05-23T12:23:31;6.45;;;5.05;;
62509;SDS011;48558;48.242;11.654;2023-05-23T12:27:55;7.60;;;6.07;;
62509;SDS011;48558;48.242;11.654;2023-05-23T12:32:08;8.23;;;5.50;;
62509;SDS011;48558;48.242;11.654;2023-05-23T12:36:23;5.32;;;4.85;;
62509;SDS011;48558;48.242;11.654;2023-05-23T12:40:41;5.72;;;4.78;;
62509;SDS011;48558;48.242;11.654;2023-05-23T12:44:54;5.53;;;4.55;;
62509;SDS011;48558;48.242;11.654;2023-05-23T12:49:17;6.80;;;5.95;;
62509;SDS011;48558;48.242;11.654;2023-05-23T12:53:30;8.40;;;5.22;;
62509;SDS011;48558;48.242;11.654;2023-05-23T12:57:42;6.80;;;6.10;;
62509;SDS011;48558;48.242;11.654;2023-05-23T13:01:55;7.38;;;6.15;;
62509;SDS011;48558;48.242;11.654;2023-05-23T13:06:08;5.43;;;4.93;;
62509;SDS011;48558;48.242;11.654;2023-05-23T13:10:20;5.85;;;5.22;;
62509;SDS011;48558;48.242;11.654;2023-05-23T13:14:43;5.45;;;4.88;;
62509;SDS011;48558;48.242;11.654;2023-05-23T13:18:56;6.45;;;5.00;;
62509;SDS011;48558;48.242;11.654;2023-05-23T13:23:08;5.70;;;5.10;;
62509;SDS011;48558;48.242;11.654;2023-05-23T13:27:22;6.95;;;5.88;;
62509;SDS011;48558;48.242;11.654;2023-05-23T13:31:35;6.78;;;5.57;;
62509;SDS011;48558;48.242;11.654;2023-05-23T13:35:48;5.60;;;4.85;;
62509;SDS011;48558;48.242;11.654;2023-05-23T13:40:02;6.80;;;5.03;;
62509;SDS011;48558;48.242;11.654;2023-05-23T13:44:16;6.57;;;4.75;;
62509;SDS011;48558;48.242;11.654;2023-05-23T13:48:28;5.15;;;4.65;;
62509;SDS011;48558;48.242;11.654;2023-05-23T13:52:41;5.10;;;4.60;;
62509;SDS011;48558;48.242;11.654;2023-05-23T13:57:04;5.80;;;5.22;;
62509;SDS011;48558;48.242;11.654;2023-05-23T14:01:17;4.60;;;4.20;;
62509;SDS011;48558;48.242;11.654;2023-05-23T14:05:30;5.18;;;4.68;;
62509;SDS011;48558;48.242;11.654;2023-05-23T14:09:53;7.05;;;4.72;;
62509;SDS011;48558;48.242;11.654;2023-05-23T14:14:05;6.05;;;4.55;;
62509;SDS011;48558;48.242;11.654;2023-05-23T14:18:18;4.97;;;4.57;;
62509;SDS011;48558;48.242;11.654;2023-05-23T14:22:31;4.00;;;3.65;;
62509;SDS011;48558;48.242;11.654;2023-05-23T14:26:43;4.68;;;4.28;;
62509;SDS011;48558;48.242;11.654;2023-05-23T14:30:56;4.13;;;3.70;;
62509;SDS011;48558;48.242;11.654;2023-05-23T14:35:10;5.60;;;5.10;;
62509;SDS011;48558;48.242;11.654;2023-05-23T14:39:23;5.78;;;4.13;;
62509;SDS011;48558;48.242;11.654;2023-05-23T14:43:36;4.32;;;3.80;;
62509;SDS011;48558;48.242;11.654;2023-05-23T14:47:49;5.55;;;4.10;;
62509;SDS011;48558;48.242;11.654;2023-05-23T14:52:01;4.03;;;3.72;;
62509;SDS011;48558;48.242;11.654;2023-05-23T14:56:14;4.07;;;3.70;;
62509;SDS011;48558;48.242;11.654;2023-05-23T15:00:27;4.65;;;4.25;;
62509;SDS011;48558;48.242;11.654;2023-05-23T15:04:41;5.00;;;4.20;;
62509;SDS011;48558;48.242;11.654;2023-05-23T15:08:54;4.20;;;3.80;;
62509;SDS011;48558;48.242;11.654;2023-05-23T15:13:07;4.70;;;3.90;;
62509;SDS011;48558;48.242;11.654;2023-05-23T15:17:20;3.70;;;3.38;;
62509;SDS011;48558;48.242;11.654;2023-05-23T15:21:36;5.20;;;4.70;;
62509;SDS011;48558;48.242;11.654;2023-05-23T15:25:54;4.82;;;4.15;;
62509;SDS011;48558;48.242;11.654;2023-05-23T15:30:16;4.68;;;4.22;;
62509;SDS011;48558;48.242;11.654;2023-05-23T15:34:32;5.65;;;4.90;;
62509;SDS011;48558;48.242;11.654;2023-05-23T15:38:45;3.65;;;3.35;;
62509;SDS011;48558;48.242;11.654;2023-05-23T15:42:58;4.53;;;3.95;;
62509;SDS011;48558;48.242;11.654;2023-05-23T15:47:18;3.47;;;3.17;;
62509;SDS011;48558;48.242;11.654;2023-05-23T15:51:31;5.35;;;4.85;;
62509;SDS011;48558;48.242;11.654;2023-05-23T15:55:44;4.05;;;3.45;;
62509;SDS011;48558;48.242;11.654;2023-05-23T15:59:57;3.47;;;3.17;;
62509;SDS011;48558;48.242;11.654;2023-05-23T16:04:10;3.83;;;3.05;;
62509;SDS011;48558;48.242;11.654;2023-05-23T16:08:23;3.45;;;3.15;;
62509;SDS011;48558;48.242;11.654;2023-05-23T16:12:45;3.05;;;2.83;;
62509;SDS011;48558;48.242;11.654;2023-05-23T16:16:58;2.42;;;2.22;;
62509;SDS011;48558;48.242;11.654;2023-05-23T16:21:13;2.65;;;2.47;;
62509;SDS011;48558;48.242;11.654;2023-05-23T16:25:41;2.72;;;2.53;;
62509;SDS011;48558;48.242;11.654;2023-05-23T16:30:04;3.72;;;2.28;;
62509;SDS011;48558;48.242;11.654;2023-05-23T16:34:17;1.95;;;1.85;;
62509;SDS011;48558;48.242;11.654;2023-05-23T16:38:30;2.10;;;1.88;;
62509;SDS011;48558;48.242;11.654;2023-05-23T16:42:43;2.35;;;2.10;;
62509;SDS011;48558;48.242;11.654;2023-05-23T16:46:55;2.75;;;2.55;;
62509;SDS011;48558;48.242;11.654;2023-05-23T16:51:08;2.13;;;2.03;;
62509;SDS011;48558;48.242;11.654;2023-05-23T16:55:21;2.97;;;1.90;;
62509;SDS011;48558;48.242;11.654;2023-05-23T16:59:34;2.95;;;1.48;;
62509;SDS011;48558;48.242;11.654;2023-05-23T17:03:47;5.25;;;1.73;;
62509;SDS011;48558;48.242;11.654;2023-05-23T17:08:00;2.28;;;2.08;;
62509;SDS011;48558;48.242;11.654;2023-05-23T17:12:13;2.38;;;1.80;;
62509;SDS011;48558;48.242;11.654;2023-05-23T17:16:31;3.40;;;1.67;;
62509;SDS011;48558;48.242;11.654;2023-05-23T17:20:44;2.10;;;1.90;;
62509;SDS011;48558;48.242;11.654;2023-05-23T17:24:57;2.35;;;2.15;;
62509;SDS011;48558;48.242;11.654;2023-05-23T17:29:12;1.85;;;1.65;;
62509;SDS011;48558;48.242;11.654;2023-05-23T17:33:28;2.25;;;1.52;;
62509;SDS011;48558;48.242;11.654;2023-05-23T17:37:41;2.00;;;1.90;;
62509;SDS011;48558;48.242;11.654;2023-05-23T17:41:55;1.73;;;1.63;;
62509;SDS011;48558;48.242;11.654;2023-05-23T17:46:08;1.70;;;1.60;;
62509;SDS011;48558;48.242;11.654;2023-05-23T17:50:21;1.70;;;1.60;;
62509;SDS011;48558;48.242;11.654;2023-05-23T17:54:33;1.67;;;1.58;;
62509;SDS011;48558;48.242;11.654;2023-05-23T17:58:47;1.70;;;1.60;;
62509;SDS011;48558;48.242;11.654;2023-05-23T18:03:00;1.48;;;1.38;;
62509;SDS011;48558;48.242;11.654;2023-05-23T18:07:15;3.92;;;1.65;;
62509;SDS011;48558;48.242;11.654;2023-05-23T18:11:40;1.05;;;1.05;;
62509;SDS011;48558;48.242;11.654;2023-05-23T18:15:54;1.40;;;1.30;;
62509;SDS011;48558;48.242;11.654;2023-05-23T18:20:06;1.48;;;1.30;;
62509;SDS011;48558;48.242;11.654;2023-05-23T18:24:19;1.52;;;1.42;;
62509;SDS011;48558;48.242;11.654;2023-05-23T18:28:32;1.20;;;1.20;;
62509;SDS011;48558;48.242;11.654;2023-05-23T18:32:45;1.40;;;1.27;;
62509;SDS011;48558;48.242;11.654;2023-05-23T18:36:57;1.50;;;1.30;;
62509;SDS011;48558;48.242;11.654;2023-05-23T18:41:10;1.50;;;1.40;;
62509;SDS011;48558;48.242;11.654;2023-05-23T18:45:35;1.50;;;1.40;;
62509;SDS011;48558;48.242;11.654;2023-05-23T18:49:48;1.73;;;1.25;;
62509;SDS011;48558;48.242;11.654;2023-05-23T18:54:01;1.55;;;1.20;;
62509;SDS011;48558;48.242;11.654;2023-05-23T18:58:14;1.20;;;1.10;;
62509;SDS011;48558;48.242;11.654;2023-05-23T19:02:29;1.65;;;1.55;;
62509;SDS011;48558;48.242;11.654;2023-05-23T19:06:43;1.70;;;1.60;;
62509;SDS011;48558;48.242;11.654;2023-05-23T19:10:59;1.27;;;1.27;;
62509;SDS011;48558;48.242;11.654;2023-05-23T19:15:12;1.70;;;1.60;;
62509;SDS011;48558;48.242;11.654;2023-05-23T19:19:25;1.55;;;1.45;;
62509;SDS011;48558;48.242;11.654;2023-05-23T19:23:43;2.72;;;1.88;;
62509;SDS011;48558;48.242;11.654;2023-05-23T19:27:56;1.75;;;1.65;;
62509;SDS011;48558;48.242;11.654;2023-05-23T19:32:09;1.60;;;1.50;;
62509;SDS011;48558;48.242;11.654;2023-05-23T19:36:21;1.42;;;1.33;;
62509;SDS011;48558;48.242;11.654;2023-05-23T19:40:34;1.58;;;1.48;;
62509;SDS011;48558;48.242;11.654;2023-05-23T19:44:54;1.70;;;1.60;;
62509;SDS011;48558;48.242;11.654;2023-05-23T19:49:06;1.80;;;1.70;;
62509;SDS011;48558;48.242;11.654;2023-05-23T19:53:19;2.60;;;1.70;;
62509;SDS011;48558;48.242;11.654;2023-05-23T19:57:33;2.30;;;1.50;;
62509;SDS011;48558;48.242;11.654;2023-05-23T20:01:46;1.90;;;1.80;;
62509;SDS011;48558;48.242;11.654;2023-05-23T20:05:59;1.40;;;1.30;;
62509;SDS011;48558;48.242;11.654;2023-05-23T20:10:11;1.80;;;1.70;;
62509;SDS011;48558;48.242;11.654;2023-05-23T20:14:25;1.75;;;1.65;;
62509;SDS011;48558;48.242;11.654;2023-05-23T20:18:49;1.60;;;1.50;;
62509;SDS011;48558;48.242;11.654;2023-05-23T20:23:02;1.50;;;1.40;;
62509;SDS011;48558;48.242;11.654;2023-05-23T20:27:15;1.77;;;1.67;;
62509;SDS011;48558;48.242;11.654;2023-05-23T20:31:29;1.48;;;1.45;;
62509;SDS011;48558;48.242;11.654;2023-05-23T20:35:41;1.75;;;1.65;;
62509;SDS011;48558;48.242;11.654;2023-05-23T20:39:54;1.70;;;1.60;;
62509;SDS011;48558;48.242;11.654;2023-05-23T20:44:07;1.90;;;1.80;;
62509;SDS011;48558;48.242;11.654;2023-05-23T20:48:23;1.50;;;1.40;;
62509;SDS011;48558;48.242;11.654;2023-05-23T20:52:36;8.57;;;1.60;;
62509;SDS011;48558;48.242;11.654;2023-05-23T20:56:50;2.88;;;1.75;;
62509;SDS011;48558;48.242;11.654;2023-05-23T21:01:05;1.70;;;1.60;;
62509;SDS011;48558;48.242;11.654;2023-05-23T21:05:19;1.92;;;1.83;;
62509;SDS011;48558;48.242;11.654;2023-05-23T21:09:31;1.70;;;1.60;;
62509;SDS011;48558;48.242;11.654;2023-05-23T21:13:44;1.65;;;1.42;;
62509;SDS011;48558;48.242;11.654;2023-05-23T21:17:57;1.90;;;1.73;;
62509;SDS011;48558;48.242;11.654;2023-05-23T21:22:09;4.30;;;1.90;;
62509;SDS011;48558;48.242;11.654;2023-05-23T21:26:22;1.77;;;1.67;;
62509;SDS011;48558;48.242;11.654;2023-05-23T21:30:35;1.85;;;1.50;;
62509;SDS011;48558;48.242;11.654;2023-05-23T21:34:47;2.15;;;1.95;;
62509;SDS011;48558;48.242;11.654;2023-05-23T21:39:00;1.63;;;1.52;;
62509;SDS011;48558;48.242;11.654;2023-05-23T21:43:12;1.60;;;1.50;;
62509;SDS011;48558;48.242;11.654;2023-05-23T21:47:25;2.05;;;1.85;;
62509;SDS011;48558;48.242;11.654;2023-05-23T21:51:48;1.63;;;1.52;;
62509;SDS011;48558;48.242;11.654;2023-05-23T21:56:00;1.63;;;1.52;;
62509;SDS011;48558;48.242;11.654;2023-05-23T22:00:13;2.58;;;2.38;;
62509;SDS011;48558;48.242;11.654;2023-05-23T22:04:26;2.03;;;1.92;;
62509;SDS011;48558;48.242;11.654;2023-05-23T22:08:39;2.17;;;1.98;;
62509;SDS011;48558;48.242;11.654;2023-05-23T22:12:53;2.22;;;2.13;;
62509;SDS011;48558;48.242;11.654;2023-05-23T22:17:06;3.67;;;1.92;;
62509;SDS011;48558;48.242;11.654;2023-05-23T22:21:19;1.70;;;1.60;;
62509;SDS011;48558;48.242;11.654;2023-05-23T22:25:31;1.73;;;1.63;;
62509;SDS011;48558;48.242;11.654;2023-05-23T22:29:46;2.08;;;1.90;;
62509;SDS011;48558;48.242;11.654;2023-05-23T22:33:58;1.30;;;1.30;;
62509;SDS011;48558;48.242;11.654;2023-05-23T22:38:11;1.52;;;1.50;;
62509;SDS011;48558;48.242;11.654;2023-05-23T22:42:23;2.10;;;1.92;;
62509;SDS011;48558;48.242;11.654;2023-05-23T22:46:36;1.90;;;1.80;;
62509;SDS011;48558;48.242;11.654;2023-05-23T22:50:50;2.47;;;1.63;;
62509;SDS011;48558;48.242;11.654;2023-05-23T22:55:06;2.00;;;1.90;;
62509;SDS011;48558;48.242;11.654;2023-05-23T22:59:19;2.55;;;2.35;;
62509;SDS011;48558;48.242;11.654;2023-05-23T23:03:32;1.92;;;1.83;;
62509;SDS011;48558;48.242;11.654;2023-05-23T23:07:44;1.88;;;1.77;;
62509;SDS011;48558;48.242;11.654;2023-05-23T23:11:57;2.45;;;2.25;;
62509;SDS011;48558;48.242;11.654;2023-05-23T23:16:18;2.15;;;2.05;;
62509;SDS011;48558;48.242;11.654;2023-05-23T23:20:31;2.45;;;2.25;;
62509;SDS011;48558;48.242;11.654;2023-05-23T23:24:44;2.10;;;1.90;;
62509;SDS011;48558;48.242;11.654;2023-05-23T23:29:01;1.85;;;1.75;;
62509;SDS011;48558;48.242;11.654;2023-05-23T23:33:14;1.73;;;1.63;;
62509;SDS011;48558;48.242;11.654;2023-05-23T23:37:27;2.00;;;1.90;;
62509;SDS011;48558;48.242;11.654;2023-05-23T23:41:40;2.08;;;1.92;;
62509;SDS011;48558;48.242;11.654;2023-05-23T23:45:53;2.45;;;1.83;;
62509;SDS011;48558;48.242;11.654;2023-05-23T23:50:05;2.67;;;1.90;;
62509;SDS011;48558;48.242;11.654;2023-05-23T23:54:19;2.33;;;1.70;;
62509;SDS011;48558;48.242;11.654;2023-05-23T23:58:31;1.77;;;1.67;;
